createdAt,value
2022-12-11T00:02:46.126Z,9.98
2022-12-11T00:05:47.777Z,7.80
2022-12-11T00:08:54.085Z,8.93
2022-12-11T00:11:55.733Z,9.07
2022-12-11T00:14:57.602Z,9.32
2022-12-11T00:17:59.221Z,10.07
2022-12-11T00:21:02.410Z,9.05
2022-12-11T00:24:04.361Z,10.38
2022-12-11T00:27:05.968Z,8.45
2022-12-11T00:30:08.042Z,9.43
2022-12-11T00:33:10.675Z,14.10
2022-12-11T00:36:31.116Z,6.85
2022-12-11T00:39:32.726Z,8.20
2022-12-11T00:42:34.533Z,6.30
2022-12-11T00:45:37.948Z,8.93
2022-12-11T00:48:40.043Z,4.10
2022-12-11T00:51:41.723Z,4.10
2022-12-11T00:54:43.400Z,5.15
2022-12-11T00:57:44.996Z,6.00
2022-12-11T01:00:48.353Z,7.68
2022-12-11T01:03:50.898Z,4.72
2022-12-11T01:06:52.561Z,4.60
2022-12-11T01:10:12.636Z,7.20
2022-12-11T01:13:14.536Z,4.45
2022-12-11T01:16:16.439Z,5.05
2022-12-11T01:19:18.086Z,4.45
2022-12-11T01:22:19.727Z,3.30
2022-12-11T01:25:21.777Z,3.22
2022-12-11T01:28:23.432Z,3.20
2022-12-11T01:31:28.261Z,2.15
2022-12-11T01:34:30.976Z,5.43
2022-12-11T01:37:32.832Z,3.92
2022-12-11T01:40:34.422Z,3.53
2022-12-11T01:43:55.929Z,5.40
2022-12-11T01:46:58.379Z,3.55
2022-12-11T01:50:00.138Z,3.33
2022-12-11T01:53:04.218Z,2.25
2022-12-11T01:56:08.268Z,5.90
2022-12-11T01:59:11.202Z,2.95
2022-12-11T02:02:20.976Z,2.90
2022-12-11T02:05:22.808Z,2.33
2022-12-11T02:08:24.459Z,3.25
2022-12-11T02:11:56.926Z,1.77
2022-12-11T02:15:07.908Z,2.53
2022-12-11T02:18:28.603Z,4.82
2022-12-11T02:21:41.875Z,3.75
2022-12-11T02:24:58.007Z,5.75
2022-12-11T02:28:20.447Z,2.50
2022-12-11T02:31:55.990Z,2.28
2022-12-11T02:35:09.767Z,1.80
2022-12-11T02:38:27.816Z,2.75
2022-12-11T02:41:31.533Z,2.87
2022-12-11T02:44:35.578Z,1.42
2022-12-11T02:47:39.167Z,3.47
2022-12-11T02:50:47.474Z,2.90
2022-12-11T02:53:51.691Z,2.87
2022-12-11T02:57:04.801Z,3.53
2022-12-11T03:00:08.657Z,4.07
2022-12-11T03:03:10.283Z,2.97
2022-12-11T03:06:18.440Z,1.52
2022-12-11T03:09:21.018Z,3.05
2022-12-11T03:12:32.812Z,2.83
2022-12-11T03:15:46.940Z,5.40
2022-12-11T03:19:03.879Z,2.42
2022-12-11T03:22:34.052Z,1.65
2022-12-11T03:25:47.080Z,1.52
2022-12-11T03:29:02.794Z,1.30
2022-12-11T03:32:09.546Z,1.30
2022-12-11T03:35:44.950Z,1.30
2022-12-11T03:38:51.025Z,1.42
2022-12-11T03:41:54.844Z,1.98
2022-12-11T03:44:59.271Z,1.35
2022-12-11T03:48:02.786Z,1.58
2022-12-11T03:51:07.616Z,1.42
2022-12-11T03:54:11.192Z,1.27
2022-12-11T03:57:16.653Z,5.85
2022-12-11T04:00:20.198Z,2.92
2022-12-11T04:03:21.893Z,2.22
2022-12-11T04:06:23.509Z,2.08
2022-12-11T04:09:25.134Z,2.97
2022-12-11T04:12:26.879Z,2.20
2022-12-11T04:15:28.527Z,1.35
2022-12-11T04:18:48.669Z,2.30
2022-12-11T04:22:09.240Z,1.33
2022-12-11T04:25:11.200Z,1.05
2022-12-11T04:28:13.110Z,1.10
2022-12-11T04:31:21.277Z,1.52
2022-12-11T04:34:23.271Z,3.70
2022-12-11T04:37:24.914Z,5.70
2022-12-11T04:40:26.616Z,8.50
2022-12-11T04:43:29.003Z,1.75
2022-12-11T04:46:31.259Z,0.85
2022-12-11T04:49:32.930Z,0.70
2022-12-11T04:52:34.562Z,0.80
2022-12-11T04:55:36.148Z,0.82
2022-12-11T04:58:38.086Z,0.77
2022-12-11T05:01:39.730Z,1.20
2022-12-11T05:04:41.524Z,1.20
2022-12-11T05:07:43.631Z,2.22
2022-12-11T05:10:49.998Z,1.12
2022-12-11T05:13:52.081Z,1.08
2022-12-11T05:16:53.702Z,2.60
2022-12-11T05:19:55.395Z,1.05
2022-12-11T05:22:56.988Z,1.10
2022-12-11T05:26:01.079Z,1.73
2022-12-11T05:29:02.720Z,1.95
2022-12-11T05:32:04.915Z,1.70
2022-12-11T05:35:06.843Z,2.37
2022-12-11T05:38:08.432Z,2.83
2022-12-11T05:41:13.741Z,2.90
2022-12-11T05:44:15.357Z,2.33
2022-12-11T05:47:16.984Z,2.53
2022-12-11T05:50:18.572Z,2.53
2022-12-11T05:53:20.175Z,3.70
2022-12-11T05:56:26.432Z,6.50
2022-12-11T05:59:28.054Z,4.43
2022-12-11T06:02:29.801Z,5.68
2022-12-11T06:05:31.436Z,2.65
2022-12-11T06:08:33.807Z,4.28
2022-12-11T06:11:36.169Z,2.53
2022-12-11T06:14:37.789Z,2.28
2022-12-11T06:17:39.365Z,2.97
2022-12-11T06:20:41.004Z,3.37
2022-12-11T06:23:43.584Z,3.50
2022-12-11T06:26:45.273Z,3.10
2022-12-11T06:29:46.872Z,3.10
2022-12-11T06:32:48.532Z,5.00
2022-12-11T06:35:50.189Z,5.45
2022-12-11T06:38:52.584Z,7.18
2022-12-11T06:41:54.367Z,5.18
2022-12-11T06:44:57.482Z,3.40
2022-12-11T06:47:59.131Z,3.50
2022-12-11T06:51:05.706Z,4.18
2022-12-11T06:54:07.336Z,4.72
2022-12-11T06:57:09.835Z,5.60
2022-12-11T07:00:11.999Z,13.55
2022-12-11T07:03:13.834Z,3.10
2022-12-11T07:06:15.879Z,8.25
2022-12-11T07:09:17.498Z,5.37
2022-12-11T07:12:19.136Z,6.55
2022-12-11T07:15:20.880Z,5.20
2022-12-11T07:18:22.491Z,3.67
2022-12-11T07:21:24.598Z,3.25
2022-12-11T07:24:26.330Z,3.85
2022-12-11T07:27:28.496Z,4.18
2022-12-11T07:30:30.681Z,8.88
2022-12-11T07:33:32.373Z,8.18
2022-12-11T07:36:35.193Z,6.12
2022-12-11T07:39:36.944Z,5.22
2022-12-11T07:42:42.911Z,4.87
2022-12-11T07:45:47.831Z,5.28
2022-12-11T07:48:49.750Z,4.60
2022-12-11T07:51:51.370Z,4.55
2022-12-11T07:54:53.028Z,4.57
2022-12-11T07:57:54.633Z,3.62
2022-12-11T08:00:56.345Z,4.47
2022-12-11T08:03:58.477Z,4.05
2022-12-11T08:07:00.132Z,5.10
2022-12-11T08:10:02.419Z,4.20
2022-12-11T08:13:04.043Z,6.97
2022-12-11T08:16:07.782Z,13.38
2022-12-11T08:19:10.794Z,7.68
2022-12-11T08:22:13.335Z,6.00
2022-12-11T08:25:14.959Z,6.60
2022-12-11T08:28:16.610Z,3.97
2022-12-11T08:31:18.759Z,3.67
2022-12-11T08:34:20.410Z,5.87
2022-12-11T08:37:22.026Z,5.70
2022-12-11T08:40:23.855Z,4.12
2022-12-11T08:43:25.910Z,4.65
2022-12-11T08:46:30.524Z,6.65
2022-12-11T08:49:34.637Z,5.28
2022-12-11T08:52:36.456Z,4.85
2022-12-11T08:55:38.109Z,6.45
2022-12-11T08:58:39.854Z,4.05
2022-12-11T09:01:42.013Z,4.03
2022-12-11T09:04:43.659Z,5.68
2022-12-11T09:07:45.688Z,5.40
2022-12-11T09:10:47.389Z,4.53
2022-12-11T09:13:49.454Z,4.40
2022-12-11T09:16:51.066Z,5.95
2022-12-11T09:19:52.701Z,4.57
2022-12-11T09:22:54.319Z,4.85
2022-12-11T09:25:56.081Z,5.22
2022-12-11T09:28:58.584Z,7.87
2022-12-11T09:32:00.247Z,7.57
2022-12-11T09:35:01.904Z,7.03
2022-12-11T09:38:03.628Z,4.50
2022-12-11T09:41:35.123Z,5.30
2022-12-11T09:44:51.533Z,6.95
2022-12-11T09:47:56.649Z,5.10
2022-12-11T09:50:58.357Z,5.62
2022-12-11T09:54:02.314Z,5.87
2022-12-11T09:57:19.069Z,4.93
2022-12-11T10:00:27.584Z,6.55
2022-12-11T10:03:44.580Z,8.25
2022-12-11T10:06:54.437Z,7.90
2022-12-11T10:10:01.212Z,9.57
2022-12-11T10:13:14.930Z,7.33
2022-12-11T10:16:38.464Z,6.62
2022-12-11T10:19:41.501Z,7.40
2022-12-11T10:22:44.382Z,4.55
2022-12-11T10:26:15.264Z,6.55
2022-12-11T10:29:17.221Z,6.25
2022-12-11T10:32:26.593Z,6.55
2022-12-11T10:35:39.883Z,9.43
2022-12-11T10:38:45.572Z,8.98
2022-12-11T10:41:49.955Z,8.25
2022-12-11T10:45:00.976Z,7.85
2022-12-11T10:48:09.615Z,8.52
2022-12-11T10:51:11.813Z,7.18
2022-12-11T10:54:38.274Z,6.12
2022-12-11T10:57:40.045Z,6.12
2022-12-11T11:00:42.454Z,8.85
2022-12-11T11:03:55.058Z,5.95
2022-12-11T11:07:15.220Z,7.75
2022-12-11T11:10:18.128Z,6.78
2022-12-11T11:13:22.552Z,6.40
2022-12-11T11:16:25.403Z,7.50
2022-12-11T11:19:31.108Z,9.25
2022-12-11T11:22:32.933Z,5.97
2022-12-11T11:25:34.905Z,6.70
2022-12-11T11:28:40.778Z,6.47
2022-12-11T11:31:42.540Z,6.15
2022-12-11T11:34:44.179Z,7.15
2022-12-11T11:38:07.285Z,7.22
2022-12-11T11:41:34.311Z,6.60
2022-12-11T11:44:47.671Z,5.60
2022-12-11T11:48:11.311Z,7.65
2022-12-11T11:51:15.865Z,6.62
2022-12-11T11:54:34.946Z,5.68
2022-12-11T11:57:55.227Z,5.37
2022-12-11T12:00:56.817Z,7.05
2022-12-11T12:03:59.070Z,7.03
2022-12-11T12:07:22.232Z,6.75
2022-12-11T12:10:31.960Z,6.07
2022-12-11T12:14:43.723Z,7.20
2022-12-11T12:17:42.900Z,8.70
2022-12-11T12:21:04.493Z,7.87
2022-12-11T12:24:25.381Z,9.98
2022-12-11T12:27:53.041Z,5.05
2022-12-11T12:31:29.498Z,6.85
2022-12-11T12:34:43.567Z,6.12
2022-12-11T12:37:58.695Z,5.65
2022-12-11T12:41:14.064Z,11.95
2022-12-11T12:44:18.850Z,18.95
2022-12-11T12:47:21.920Z,11.38
2022-12-11T12:50:27.224Z,13.85
2022-12-11T12:53:33.604Z,7.35
2022-12-11T12:56:37.477Z,7.50
2022-12-11T12:59:39.078Z,7.87
2022-12-11T13:02:51.723Z,6.90
2022-12-11T13:06:03.304Z,7.25
2022-12-11T13:09:23.918Z,8.52
2022-12-11T13:12:41.849Z,7.15
2022-12-11T13:15:43.971Z,7.57
2022-12-11T13:18:49.225Z,9.10
2022-12-11T13:21:56.695Z,6.97
2022-12-11T13:25:01.942Z,5.82
2022-12-11T13:28:26.157Z,5.22
2022-12-11T13:31:37.344Z,5.15
2022-12-11T13:34:45.325Z,7.12
2022-12-11T13:37:49.970Z,5.40
2022-12-11T13:40:55.759Z,4.97
2022-12-11T13:43:58.140Z,5.60
2022-12-11T13:47:03.789Z,5.25
2022-12-11T13:50:20.978Z,6.12
2022-12-11T13:53:23.972Z,6.80
2022-12-11T13:56:25.866Z,7.25
2022-12-11T13:59:34.300Z,5.28
2022-12-11T14:02:42.649Z,7.15
2022-12-11T14:05:44.642Z,6.95
2022-12-11T14:08:50.206Z,8.82
2022-12-11T14:11:56.754Z,7.85
2022-12-11T14:15:02.381Z,7.87
2022-12-11T14:18:05.601Z,22.15
2022-12-11T14:21:07.521Z,10.07
2022-12-11T14:24:14.315Z,8.77
2022-12-11T14:27:18.776Z,10.48
2022-12-11T14:30:26.247Z,7.55
2022-12-11T14:33:41.102Z,5.70
2022-12-11T14:36:46.790Z,5.07
2022-12-11T14:40:16.071Z,5.75
2022-12-11T14:43:30.682Z,7.72
2022-12-11T14:46:45.681Z,10.32
2022-12-11T14:49:47.227Z,12.37
2022-12-11T14:53:02.874Z,13.02
2022-12-11T14:56:16.347Z,14.23
2022-12-11T14:59:26.900Z,11.43
2022-12-11T15:02:33.724Z,10.63
2022-12-11T15:05:40.581Z,12.45
2022-12-11T15:08:42.737Z,11.70
2022-12-11T15:11:45.335Z,12.35
2022-12-11T15:15:00.939Z,13.15
2022-12-11T15:18:07.862Z,22.30
2022-12-11T15:21:12.266Z,17.10
2022-12-11T15:24:28.419Z,10.75
2022-12-11T15:27:40.181Z,12.95
2022-12-11T15:30:42.064Z,12.23
2022-12-11T15:33:50.285Z,12.13
2022-12-11T15:36:51.999Z,11.07
2022-12-11T15:39:55.239Z,11.50
2022-12-11T15:42:58.351Z,8.80
2022-12-11T15:46:02.670Z,9.60
2022-12-11T15:49:12.720Z,11.02
2022-12-11T15:52:14.466Z,8.20
2022-12-11T15:55:16.641Z,10.40
2022-12-11T15:58:24.455Z,9.90
2022-12-11T16:01:26.541Z,8.80
2022-12-11T16:04:28.804Z,8.75
2022-12-11T16:07:30.621Z,11.68
2022-12-11T16:10:32.690Z,12.00
2022-12-11T16:13:34.759Z,10.68
2022-12-11T16:16:36.456Z,9.30
2022-12-11T16:19:38.476Z,11.30
2022-12-11T16:22:40.411Z,11.82
2022-12-11T16:25:45.834Z,9.07
2022-12-11T16:28:48.184Z,11.95
2022-12-11T16:31:50.461Z,9.88
2022-12-11T16:34:52.690Z,10.43
2022-12-11T16:37:55.319Z,9.63
2022-12-11T16:41:01.382Z,13.07
2022-12-11T16:44:03.776Z,12.15
2022-12-11T16:47:05.548Z,20.48
2022-12-11T16:50:08.175Z,15.40
2022-12-11T16:53:10.236Z,24.75
2022-12-11T16:56:11.987Z,17.95
2022-12-11T16:59:15.240Z,12.70
2022-12-11T17:02:18.029Z,31.37
2022-12-11T17:05:20.797Z,30.60
2022-12-11T17:08:22.860Z,26.00
2022-12-11T17:11:29.492Z,23.58
2022-12-11T17:14:34.150Z,12.40
2022-12-11T17:17:36.224Z,17.75
2022-12-11T17:20:42.168Z,18.48
2022-12-11T17:23:45.162Z,15.07
2022-12-11T17:26:48.569Z,19.08
2022-12-11T17:29:50.878Z,15.52
2022-12-11T17:32:52.841Z,15.55
2022-12-11T17:35:55.073Z,15.02
2022-12-11T17:38:57.501Z,19.33
2022-12-11T17:41:59.807Z,21.12
2022-12-11T17:45:04.077Z,23.23
2022-12-11T17:48:06.285Z,15.75
2022-12-11T17:51:11.757Z,15.55
2022-12-11T17:54:14.325Z,13.80
2022-12-11T17:57:16.077Z,17.50
2022-12-11T18:00:18.272Z,15.95
2022-12-11T18:03:20.983Z,13.70
2022-12-11T18:06:24.558Z,16.00
2022-12-11T18:09:26.213Z,15.48
2022-12-11T18:12:28.201Z,14.30
2022-12-11T18:15:31.461Z,15.57
2022-12-11T18:18:35.582Z,15.07
2022-12-11T18:21:41.791Z,12.27
2022-12-11T18:24:44.073Z,11.25
2022-12-11T18:27:47.070Z,13.48
2022-12-11T18:30:49.397Z,13.00
2022-12-11T18:33:52.092Z,13.48
2022-12-11T18:36:54.547Z,12.27
2022-12-11T18:39:56.764Z,12.95
2022-12-11T18:42:58.904Z,11.07
2022-12-11T18:46:02.214Z,13.90
2022-12-11T18:49:04.638Z,17.65
2022-12-11T18:52:07.339Z,19.62
2022-12-11T18:55:10.212Z,21.73
2022-12-11T18:58:14.666Z,14.23
2022-12-11T19:01:24.188Z,10.98
2022-12-11T19:04:26.230Z,10.18
2022-12-11T19:07:28.750Z,10.73
2022-12-11T19:10:31.256Z,11.25
2022-12-11T19:13:34.849Z,9.52
2022-12-11T19:16:41.368Z,10.70
2022-12-11T19:19:46.685Z,13.40
2022-12-11T19:22:49.094Z,11.80
2022-12-11T19:25:51.628Z,9.40
2022-12-11T19:28:54.378Z,14.15
2022-12-11T19:31:57.337Z,11.55
2022-12-11T19:35:00.696Z,12.63
2022-12-11T19:38:02.881Z,14.93
2022-12-11T19:41:14.343Z,15.13
2022-12-11T19:44:17.532Z,15.85
2022-12-11T19:47:20.695Z,15.43
2022-12-11T19:50:23.197Z,16.15
2022-12-11T19:53:25.526Z,13.35
2022-12-11T19:56:28.301Z,14.35
2022-12-11T19:59:30.984Z,16.80
2022-12-11T20:02:33.206Z,17.77
2022-12-11T20:05:36.069Z,20.98
2022-12-11T20:08:46.297Z,22.25
2022-12-11T20:11:49.667Z,19.25
2022-12-11T20:14:53.440Z,22.75
2022-12-11T20:17:58.169Z,19.10
2022-12-11T20:21:01.320Z,23.17
2022-12-11T20:24:03.882Z,17.58
2022-12-11T20:27:08.225Z,19.15
2022-12-11T20:30:10.976Z,17.87
2022-12-11T20:33:13.249Z,23.70
2022-12-11T20:36:17.485Z,25.55
2022-12-11T20:39:20.216Z,16.25
2022-12-11T20:42:23.369Z,15.63
2022-12-11T20:45:25.852Z,14.05
2022-12-11T20:48:28.269Z,15.65
2022-12-11T20:51:32.863Z,15.75
2022-12-11T20:54:35.209Z,12.95
2022-12-11T20:57:41.992Z,14.95
2022-12-11T21:00:48.251Z,19.95
2022-12-11T21:03:50.542Z,15.35
2022-12-11T21:07:02.428Z,16.25
2022-12-11T21:10:05.820Z,14.25
2022-12-11T21:13:07.794Z,11.65
2022-12-11T21:16:10.671Z,13.48
2022-12-11T21:19:17.053Z,14.02
2022-12-11T21:22:19.380Z,13.77
2022-12-11T21:25:21.115Z,15.75
2022-12-11T21:28:24.330Z,12.50
2022-12-11T21:31:27.653Z,13.30
2022-12-11T21:34:29.842Z,13.80
2022-12-11T21:37:31.943Z,12.68
2022-12-11T21:40:34.179Z,14.10
2022-12-11T21:43:35.792Z,14.87
2022-12-11T21:46:37.903Z,18.25
2022-12-11T21:49:39.575Z,16.90
2022-12-11T21:52:41.208Z,14.13
2022-12-11T21:55:42.873Z,14.05
2022-12-11T21:58:45.253Z,16.20
2022-12-11T22:01:47.126Z,11.45
2022-12-11T22:04:48.788Z,14.60
2022-12-11T22:07:50.481Z,13.05
2022-12-11T22:10:52.209Z,12.75
2022-12-11T22:13:54.460Z,12.82
2022-12-11T22:16:56.128Z,11.68
2022-12-11T22:19:57.785Z,12.15
2022-12-11T22:22:59.522Z,10.77
2022-12-11T22:26:01.317Z,12.60
2022-12-11T22:29:03.615Z,12.90
2022-12-11T22:32:05.362Z,12.63
2022-12-11T22:35:07.391Z,12.27
2022-12-11T22:38:09.083Z,13.18
2022-12-11T22:41:16.349Z,12.93
2022-12-11T22:44:22.209Z,12.55
2022-12-11T22:47:23.947Z,11.88
2022-12-11T22:50:25.550Z,12.80
2022-12-11T22:53:27.170Z,12.75
2022-12-11T22:56:28.827Z,12.63
2022-12-11T22:59:30.432Z,12.00
2022-12-11T23:02:32.075Z,15.98
2022-12-11T23:05:33.720Z,15.60
2022-12-11T23:08:35.759Z,13.20
2022-12-11T23:11:38.460Z,12.90
2022-12-11T23:14:40.124Z,12.40
2022-12-11T23:17:41.768Z,15.02
2022-12-11T23:20:43.723Z,14.85
2022-12-11T23:23:45.574Z,14.48
2022-12-11T23:26:48.180Z,16.17
2022-12-11T23:29:49.890Z,12.82
2022-12-11T23:32:51.497Z,14.68
2022-12-11T23:35:53.131Z,13.77
2022-12-11T23:38:55.292Z,15.48
2022-12-11T23:41:57.122Z,17.37
2022-12-11T23:44:58.787Z,19.35
2022-12-11T23:48:00.461Z,17.00
2022-12-11T23:51:04.364Z,18.15
2022-12-11T23:54:05.997Z,16.48
2022-12-11T23:57:07.601Z,17.55
